Melrose, Minnesota
Current Conditions -  °F | °C
As of 3:32 PM on Saturday 22 Nov 2014 (Local Time) from KD39 Reporting Station
Moderate Fog Moderate Fog  
Wind Chill: 22°   Ceiling: 200
Heat Index: 32°   Visibility: 0.5mi
Dew Point: 31°   Wind: 14mph
Humidity: 99%   Direction: 130°SE
Pressure: 29.58"   Gusts: NA
Location:  45.67°N, 94.81°W
Report Text: KD39 222132Z AUTO 13012KT 1/2SM FG OVC002 00/00 A2958 RMK AO2 T10011003
Loading
Personal Weather Stations






























Interactive Weather Map New forecast layout! Learn more

10-Day Weather Forecast

Advertisements
Track Severe Weather on mobile